Other Surface Observations
Issued by NWS Great Falls, MT

Home | Current Version | Previous Version | Text Only | Print | Product List | Glossary On
Versions: 1 2 3 4 5 6 7 8 9 10 11 12 13 14 15 16 17 18 19 20 21 22 23 24 25 26 27 28 29 30 31 32 33 34 35 36 37 38 39 40 41 42 43 44 45 46 47 48 49 50
240
SXUS55 KTFX 190159
OSOTFX
AREA AWOS OBSERVATIONS
NATIONAL WEATHER SERVICE GREAT FALLS MT
0659 PM MST WED JAN 18 2017

METAR KPWD 190200Z AUTO 12005KT 8SM 01/M03 A2952 RMK PLENTYWOOD
METAR KPO1 190200Z AUTO 00000KT 10SM 01/M03 A2955 RMK POPLAR
METAR K1S3 190200Z AUTO 00000KT 10SM M01/M06 A2958 RMK FORSYTH
METAR KS71 190200Z AUTO 27007KT 10SM 06/00 A2946 RMK CHINOOK
METAR K79S 190200Z AUTO 10SM 06/M02 A2950 RMK FORT BENTON
METAR K38S 190200Z AUTO 18009KT 10SM 05/M03 A2962 RMK DEER LODGE
METAR K3U3 190200Z AUTO 12010G14KT 10SM 03/M06 A2962 RMK ANACONDA
METAR K6S5 190200Z AUTO 16013KT 10SM 07/M03 A2959 RMK HAMILTON
METAR K88M 190200Z AUTO 15014KT 10SM 04/01 A2954 RMK EUREKA



USA.gov is the U.S. government's official web portal to all federal, state and local government web resources and services.